Time;durP1;ratioP1;P1;durP2;ratioP2;P2;SDS_P1;SDS_P2;PMS_P1;PMS_P2;Temp;Humidity;BMP_temperature;BMP_pressure;BME280_temperature;BME280_humidity;BME280_pressure;Samples;Min_cycle;Max_cycle;Signal;HPM_P1;HPM_P2
2022/01/03 00:02:26;;;;;;;21.77;3.57;;;;;;;;;;5068696;28;20968;-77
2022/01/03 00:04:54;;;;;;;14.27;3.90;;;;;;;;;;5052237;28;20471;-76
2022/01/03 00:07:21;;;;;;;13.67;3.10;;;;;;;;;;5048735;28;20444;-76
2022/01/03 00:09:48;;;;;;;18.87;3.87;;;;;;;;;;5067695;28;20441;-76
2022/01/03 00:12:15;;;;;;;16.23;4.17;;;;;;;;;;5069215;28;20480;-76
2022/01/03 00:14:43;;;;;;;18.47;3.67;;;;;;;;;;5070606;28;20483;-76
2022/01/03 00:17:12;;;;;;;21.80;4.10;;;;;;;;;;5068785;28;21126;-76
2022/01/03 00:19:39;;;;;;;19.83;3.73;;;;;;;;;;5070131;28;21215;-76
2022/01/03 00:22:07;;;;;;;16.77;3.70;;;;;;;;;;5065587;28;20464;-76
2022/01/03 00:24:36;;;;;;;7.33;3.07;;;;;;;;;;5067498;28;20947;-77
2022/01/03 00:27:04;;;;;;;11.70;3.73;;;;;;;;;;5069530;28;20451;-76
2022/01/03 00:29:37;;;;;;;18.87;3.90;;;;;;;;;;5050705;28;20472;-76
2022/01/03 00:32:07;;;;;;;25.70;4.50;;;;;;;;;;5070754;28;20827;-76
2022/01/03 00:34:37;;;;;;;21.03;4.47;;;;;;;;;;5070302;28;20440;-75
2022/01/03 00:37:06;;;;;;;22.40;3.70;;;;;;;;;;5050888;28;20464;-76
2022/01/03 00:39:34;;;;;;;12.73;3.40;;;;;;;;;;5068879;28;20476;-76
2022/01/03 00:42:02;;;;;;;15.50;2.80;;;;;;;;;;5071893;28;20824;-76
2022/01/03 00:44:29;;;;;;;25.13;3.50;;;;;;;;;;5067135;28;21109;-76
2022/01/03 00:46:57;;;;;;;14.90;3.00;;;;;;;;;;5066361;28;21199;-76
2022/01/03 00:49:24;;;;;;;22.20;5.37;;;;;;;;;;5068409;28;20475;-76
2022/01/03 00:51:52;;;;;;;11.00;4.00;;;;;;;;;;5069865;28;21015;-77
2022/01/03 00:54:20;;;;;;;12.13;2.93;;;;;;;;;;5069765;28;20548;-76
2022/01/03 00:56:48;;;;;;;14.63;4.00;;;;;;;;;;5074131;28;20782;-76
2022/01/03 00:59:15;;;;;;;14.93;3.00;;;;;;;;;;5072812;28;20482;-76
2022/01/03 01:01:46;;;;;;;10.17;2.10;;;;;;;;;;5070397;28;20456;-76
2022/01/03 01:04:13;;;;;;;11.90;2.67;;;;;;;;;;5054525;28;20467;-76
2022/01/03 01:06:41;;;;;;;12.07;2.20;;;;;;;;;;5055669;28;20444;-76
2022/01/03 01:09:11;;;;;;;10.77;2.60;;;;;;;;;;5071681;28;20493;-76
2022/01/03 01:11:41;;;;;;;9.60;2.63;;;;;;;;;;5073541;28;20474;-76
2022/01/03 01:14:08;;;;;;;9.43;2.47;;;;;;;;;;5070988;28;20444;-76
2022/01/03 01:16:36;;;;;;;13.87;2.53;;;;;;;;;;5069882;28;20471;-77
2022/01/03 01:19:03;;;;;;;14.60;3.10;;;;;;;;;;5069442;28;20456;-76
2022/01/03 01:21:30;;;;;;;16.87;3.90;;;;;;;;;;5051280;28;20964;-76
2022/01/03 01:23:58;;;;;;;10.27;3.10;;;;;;;;;;5072754;28;20953;-76
2022/01/03 01:29:08;;;;;;;11.00;2.87;;;;;;;;;;5071332;28;20452;-76
2022/01/03 01:31:36;;;;;;;15.37;3.43;;;;;;;;;;5051048;28;20476;-76
2022/01/03 01:34:05;;;;;;;10.50;3.00;;;;;;;;;;5066508;28;20456;-78
2022/01/03 01:36:33;;;;;;;12.40;3.37;;;;;;;;;;5070283;28;20850;-76
2022/01/03 01:39:01;;;;;;;12.20;2.57;;;;;;;;;;5070561;28;20996;-76
2022/01/03 01:41:30;;;;;;;9.43;3.10;;;;;;;;;;5072819;28;20440;-77
2022/01/03 01:44:00;;;;;;;9.37;2.67;;;;;;;;;;5071378;28;20446;-76
2022/01/03 01:46:28;;;;;;;5.40;2.33;;;;;;;;;;5055175;28;20463;-76
2022/01/03 01:48:55;;;;;;;14.10;2.90;;;;;;;;;;5052310;28;20571;-76
2022/01/03 01:51:24;;;;;;;9.70;3.00;;;;;;;;;;5070891;28;20451;-77
2022/01/03 01:53:53;;;;;;;11.10;3.10;;;;;;;;;;5051698;28;20722;-76
2022/01/03 01:56:21;;;;;;;13.63;2.77;;;;;;;;;;5051529;28;20528;-76
2022/01/03 01:59:03;;;;;;;12.90;3.13;;;;;;;;;;5059501;28;21051;-75
2022/01/03 02:01:37;;;;;;;15.70;2.97;;;;;;;;;;5057179;28;20436;-76
2022/01/03 02:04:11;;;;;;;10.63;3.63;;;;;;;;;;5068549;28;20457;-76
2022/01/03 02:06:41;;;;;;;5.93;2.23;;;;;;;;;;5064027;28;20436;-76
2022/01/03 02:09:10;;;;;;;5.93;2.30;;;;;;;;;;5052697;28;20972;-75
2022/01/03 02:11:43;;;;;;;18.23;3.27;;;;;;;;;;5071775;28;20439;-76
2022/01/03 02:14:11;;;;;;;14.63;2.93;;;;;;;;;;5053857;28;20476;-75
2022/01/03 02:16:39;;;;;;;9.20;2.73;;;;;;;;;;5072956;28;20432;-76
2022/01/03 02:19:07;;;;;;;5.97;1.87;;;;;;;;;;5072746;28;20464;-75
2022/01/03 02:21:35;;;;;;;11.07;2.13;;;;;;;;;;5072008;28;20460;-76
2022/01/03 02:24:04;;;;;;;12.43;2.87;;;;;;;;;;5071678;28;20456;-75
2022/01/03 02:26:31;;;;;;;11.60;2.47;;;;;;;;;;5073120;28;20915;-76
2022/01/03 02:28:58;;;;;;;8.90;1.97;;;;;;;;;;5070554;28;20949;-76
2022/01/03 02:31:26;;;;;;;6.53;2.93;;;;;;;;;;5069192;28;20447;-75
2022/01/03 02:33:53;;;;;;;14.30;2.50;;;;;;;;;;5069482;28;20468;-76
2022/01/03 02:36:21;;;;;;;11.47;2.80;;;;;;;;;;5054196;28;20444;-76
2022/01/03 02:38:50;;;;;;;9.40;2.03;;;;;;;;;;5053351;28;20476;-76
2022/01/03 02:41:17;;;;;;;9.13;2.40;;;;;;;;;;5071605;28;20854;-76
2022/01/03 02:43:44;;;;;;;7.40;2.40;;;;;;;;;;5071877;28;20811;-75
2022/01/03 02:46:11;;;;;;;11.80;3.00;;;;;;;;;;5066772;28;21019;-76
2022/01/03 02:48:38;;;;;;;13.87;2.33;;;;;;;;;;5069812;28;20468;-75
2022/01/03 02:51:06;;;;;;;14.20;2.83;;;;;;;;;;5071288;28;20452;-75
2022/01/03 02:53:33;;;;;;;8.40;2.70;;;;;;;;;;5070103;28;21015;-76
2022/01/03 02:56:02;;;;;;;11.73;3.47;;;;;;;;;;5071975;28;20455;-76
2022/01/03 02:58:29;;;;;;;10.23;2.33;;;;;;;;;;5071462;28;20555;-76
2022/01/03 03:00:56;;;;;;;7.07;2.40;;;;;;;;;;5070534;28;20467;-76
2022/01/03 03:03:24;;;;;;;15.30;2.90;;;;;;;;;;5073770;28;20441;-77
2022/01/03 03:05:51;;;;;;;6.27;2.17;;;;;;;;;;5073511;28;20614;-76
2022/01/03 03:08:19;;;;;;;13.03;3.10;;;;;;;;;;5051480;28;20468;-76
2022/01/03 03:10:46;;;;;;;7.00;2.30;;;;;;;;;;5068926;28;20800;-76
2022/01/03 03:13:14;;;;;;;9.17;2.60;;;;;;;;;;5070676;28;20567;-75
2022/01/03 03:15:42;;;;;;;10.90;2.60;;;;;;;;;;5070030;28;20456;-75
2022/01/03 03:18:09;;;;;;;9.63;2.30;;;;;;;;;;5071392;28;20967;-75
2022/01/03 03:20:37;;;;;;;8.00;2.30;;;;;;;;;;5068973;28;20463;-75
2022/01/03 03:23:05;;;;;;;13.00;2.47;;;;;;;;;;5062110;28;20476;-76
2022/01/03 03:25:33;;;;;;;5.23;2.23;;;;;;;;;;5067664;28;20558;-75
2022/01/03 03:28:01;;;;;;;12.97;2.67;;;;;;;;;;5051582;28;20460;-76
2022/01/03 03:30:31;;;;;;;5.93;2.50;;;;;;;;;;5070770;28;20444;-76
2022/01/03 03:33:07;;;;;;;9.80;2.97;;;;;;;;;;5070994;28;20482;-76
2022/01/03 03:35:34;;;;;;;11.50;2.97;;;;;;;;;;5069803;28;20471;-76
2022/01/03 03:38:01;;;;;;;10.67;2.37;;;;;;;;;;5053186;28;20467;-76
2022/01/03 03:40:28;;;;;;;12.17;2.13;;;;;;;;;;5070453;28;20824;-75
2022/01/03 03:42:56;;;;;;;7.20;2.40;;;;;;;;;;5072543;28;20440;-76
2022/01/03 03:45:23;;;;;;;9.73;2.80;;;;;;;;;;5071257;28;20948;-76
2022/01/03 03:47:52;;;;;;;14.73;2.57;;;;;;;;;;5050881;28;20467;-76
2022/01/03 03:50:19;;;;;;;6.20;2.60;;;;;;;;;;5049225;28;20452;-76
2022/01/03 03:52:47;;;;;;;13.80;2.90;;;;;;;;;;5068747;28;20472;-75
2022/01/03 03:55:14;;;;;;;9.90;2.83;;;;;;;;;;5066463;28;20456;-76
2022/01/03 03:57:41;;;;;;;7.10;2.13;;;;;;;;;;5070415;28;20683;-76
2022/01/03 04:00:10;;;;;;;9.40;2.10;;;;;;;;;;5066803;28;20460;-76
2022/01/03 04:02:37;;;;;;;12.00;2.67;;;;;;;;;;5069511;28;20448;-76
2022/01/03 04:05:06;;;;;;;8.27;2.23;;;;;;;;;;5066147;28;20464;-76
2022/01/03 04:07:33;;;;;;;7.83;2.00;;;;;;;;;;5067043;28;20464;-76
2022/01/03 04:10:00;;;;;;;5.10;1.90;;;;;;;;;;5069909;28;20820;-76
2022/01/03 04:12:27;;;;;;;9.13;2.57;;;;;;;;;;5068320;28;20479;-75
2022/01/03 04:14:55;;;;;;;8.40;2.33;;;;;;;;;;5068951;28;20797;-76
2022/01/03 04:17:22;;;;;;;10.90;3.10;;;;;;;;;;5069731;28;20440;-75
2022/01/03 04:19:49;;;;;;;7.53;2.77;;;;;;;;;;5069812;28;20472;-76
2022/01/03 04:22:17;;;;;;;7.20;2.63;;;;;;;;;;5066452;28;20472;-76
2022/01/03 04:24:45;;;;;;;6.23;1.83;;;;;;;;;;5068953;28;20439;-76
2022/01/03 04:27:12;;;;;;;8.93;1.97;;;;;;;;;;5070934;28;20527;-76
2022/01/03 04:29:39;;;;;;;7.70;2.30;;;;;;;;;;5069746;28;20467;-76
2022/01/03 04:32:06;;;;;;;8.73;1.80;;;;;;;;;;5068656;28;20455;-76
2022/01/03 04:34:34;;;;;;;8.40;2.33;;;;;;;;;;5070157;28;20443;-77
2022/01/03 04:37:01;;;;;;;12.00;2.50;;;;;;;;;;5085708;28;20827;-76
2022/01/03 04:39:29;;;;;;;10.20;2.00;;;;;;;;;;5075867;28;20490;-76
2022/01/03 04:41:56;;;;;;;7.10;2.10;;;;;;;;;;5071573;28;20429;-77
2022/01/03 04:44:24;;;;;;;9.50;2.63;;;;;;;;;;5067617;28;20432;-76
2022/01/03 04:46:52;;;;;;;8.00;2.00;;;;;;;;;;5067679;28;20439;-75
2022/01/03 04:49:19;;;;;;;12.40;2.37;;;;;;;;;;5066649;28;20492;-77
2022/01/03 04:51:46;;;;;;;10.03;3.03;;;;;;;;;;5068323;28;20448;-75
2022/01/03 04:54:13;;;;;;;6.93;1.83;;;;;;;;;;5069871;28;20484;-76
2022/01/03 04:56:42;;;;;;;11.47;2.73;;;;;;;;;;5070264;28;20440;-76
2022/01/03 04:59:09;;;;;;;7.83;1.80;;;;;;;;;;5068341;28;20998;-76
2022/01/03 05:01:36;;;;;;;8.67;2.53;;;;;;;;;;5070233;28;20494;-76
2022/01/03 05:04:03;;;;;;;15.00;2.90;;;;;;;;;;5070373;28;20948;-76
2022/01/03 05:06:30;;;;;;;12.60;2.33;;;;;;;;;;5067638;28;20443;-75
2022/01/03 05:08:57;;;;;;;8.80;2.10;;;;;;;;;;5066215;28;20459;-76
2022/01/03 05:11:25;;;;;;;6.07;2.40;;;;;;;;;;5068303;28;20937;-76
2022/01/03 05:13:53;;;;;;;6.20;1.90;;;;;;;;;;5069713;28;20483;-77
2022/01/03 05:16:20;;;;;;;6.70;2.10;;;;;;;;;;5068466;28;20447;-76
2022/01/03 05:18:47;;;;;;;12.73;2.63;;;;;;;;;;5069465;28;20460;-76
2022/01/03 05:21:15;;;;;;;8.67;2.57;;;;;;;;;;5061218;28;20464;-75
2022/01/03 05:23:42;;;;;;;11.17;2.23;;;;;;;;;;5067431;28;20440;-76
2022/01/03 05:26:10;;;;;;;6.97;2.40;;;;;;;;;;5048979;28;20448;-75
2022/01/03 05:28:37;;;;;;;11.10;3.10;;;;;;;;;;5070067;28;20460;-76
2022/01/03 05:31:06;;;;;;;7.47;2.53;;;;;;;;;;5068457;28;20811;-76
2022/01/03 05:33:33;;;;;;;12.30;2.23;;;;;;;;;;5069838;28;20482;-76
2022/01/03 05:36:00;;;;;;;9.00;2.40;;;;;;;;;;5068651;28;20551;-76
2022/01/03 05:38:27;;;;;;;14.90;3.13;;;;;;;;;;5068101;28;20468;-76
2022/01/03 05:40:54;;;;;;;11.07;2.53;;;;;;;;;;5068562;28;20997;-74
2022/01/03 05:43:21;;;;;;;8.93;2.80;;;;;;;;;;5069750;28;20460;-77
2022/01/03 05:45:49;;;;;;;10.37;2.83;;;;;;;;;;5072675;28;20444;-76
2022/01/03 05:48:17;;;;;;;12.33;2.60;;;;;;;;;;5072462;28;20471;-76
2022/01/03 05:50:44;;;;;;;7.23;2.30;;;;;;;;;;5071731;28;20451;-76
2022/01/03 05:53:11;;;;;;;8.80;2.23;;;;;;;;;;5071144;28;20879;-76
2022/01/03 05:55:39;;;;;;;5.10;2.53;;;;;;;;;;5070775;28;20446;-76
2022/01/03 05:58:06;;;;;;;7.77;2.37;;;;;;;;;;5070984;28;20452;-77
2022/01/03 06:00:33;;;;;;;9.90;2.63;;;;;;;;;;5070695;28;20448;-75
2022/01/03 06:03:00;;;;;;;8.07;2.30;;;;;;;;;;5072230;28;20820;-76
2022/01/03 06:05:41;;;;;;;10.00;2.40;;;;;;;;;;5072699;28;20444;-77
2022/01/03 06:08:08;;;;;;;6.73;2.43;;;;;;;;;;5072311;28;20475;-77
2022/01/03 06:10:40;;;;;;;5.00;2.17;;;;;;;;;;5071743;28;20464;-76
2022/01/03 06:13:07;;;;;;;7.93;2.23;;;;;;;;;;5052693;28;20468;-76
2022/01/03 06:15:34;;;;;;;7.40;1.73;;;;;;;;;;5069673;28;20433;-76
2022/01/03 06:18:01;;;;;;;8.13;2.67;;;;;;;;;;5070597;28;20547;-76
2022/01/03 06:20:31;;;;;;;16.03;2.90;;;;;;;;;;5072222;28;20432;-77
2022/01/03 06:22:58;;;;;;;8.37;2.47;;;;;;;;;;5072398;28;20530;-77
2022/01/03 06:25:25;;;;;;;11.17;2.60;;;;;;;;;;5072145;28;20459;-77
2022/01/03 06:27:52;;;;;;;15.03;2.77;;;;;;;;;;5056686;28;20477;-75
2022/01/03 06:30:20;;;;;;;8.30;2.07;;;;;;;;;;5069841;28;20945;-77
2022/01/03 06:32:47;;;;;;;6.73;2.20;;;;;;;;;;5070274;28;20451;-80
2022/01/03 06:35:14;;;;;;;14.00;3.43;;;;;;;;;;5074298;28;20820;-77
2022/01/03 06:37:42;;;;;;;7.47;2.50;;;;;;;;;;5072511;28;20459;-78
2022/01/03 06:40:10;;;;;;;5.87;2.40;;;;;;;;;;5072012;28;20549;-76
2022/01/03 06:42:37;;;;;;;8.23;2.33;;;;;;;;;;5072441;28;20446;-78
2022/01/03 06:45:05;;;;;;;8.47;1.90;;;;;;;;;;5072466;28;20468;-76
2022/01/03 06:47:32;;;;;;;11.10;2.30;;;;;;;;;;5072305;28;20464;-77
2022/01/03 06:49:59;;;;;;;6.50;1.93;;;;;;;;;;5073623;28;20837;-75
2022/01/03 06:52:26;;;;;;;9.80;2.13;;;;;;;;;;5070752;28;20447;-78
2022/01/03 06:54:55;;;;;;;8.10;2.30;;;;;;;;;;5069344;28;20486;-76
2022/01/03 06:57:22;;;;;;;9.17;2.13;;;;;;;;;;5068274;28;20466;-78
2022/01/03 06:59:49;;;;;;;6.70;2.40;;;;;;;;;;5054437;28;20451;-78
2022/01/03 07:02:17;;;;;;;6.17;2.20;;;;;;;;;;5071969;28;20452;-75
2022/01/03 07:04:44;;;;;;;8.93;3.13;;;;;;;;;;5071873;28;20455;-78
2022/01/03 07:07:11;;;;;;;10.73;2.20;;;;;;;;;;5070522;28;20457;-76
2022/01/03 07:09:38;;;;;;;7.50;2.73;;;;;;;;;;5073584;28;21118;-75
2022/01/03 07:12:08;;;;;;;7.80;2.13;;;;;;;;;;5073678;28;20448;-80
2022/01/03 07:19:59;;;;;;;15.03;2.87;;;;;;;;;;5069330;28;20444;-76
2022/01/03 07:22:26;;;;;;;9.23;2.87;;;;;;;;;;5054096;28;20451;-79
2022/01/03 07:24:54;;;;;;;8.53;2.57;;;;;;;;;;5069867;28;20452;-79
2022/01/03 07:27:22;;;;;;;7.93;2.50;;;;;;;;;;5071609;28;20452;-75
2022/01/03 07:29:51;;;;;;;7.83;2.20;;;;;;;;;;5063359;28;20457;-80
2022/01/03 07:32:18;;;;;;;4.67;1.97;;;;;;;;;;5068935;28;20627;-77
2022/01/03 07:34:45;;;;;;;10.27;2.50;;;;;;;;;;5047813;28;20556;-78
2022/01/03 07:37:12;;;;;;;6.60;2.50;;;;;;;;;;5069280;28;20444;-75
2022/01/03 07:39:40;;;;;;;9.30;2.40;;;;;;;;;;5069593;28;20467;-76
2022/01/03 07:42:07;;;;;;;7.60;2.37;;;;;;;;;;5068815;28;21068;-76
2022/01/03 07:44:36;;;;;;;9.00;2.60;;;;;;;;;;5051645;28;20436;-74
2022/01/03 07:47:03;;;;;;;8.83;2.40;;;;;;;;;;5071006;28;20454;-75
2022/01/03 07:49:30;;;;;;;8.73;2.33;;;;;;;;;;5066980;28;20580;-77
2022/01/03 07:51:58;;;;;;;8.53;2.50;;;;;;;;;;5066673;28;20471;-77
2022/01/03 07:54:25;;;;;;;7.33;2.50;;;;;;;;;;5069632;28;20480;-75
2022/01/03 07:56:53;;;;;;;8.47;2.50;;;;;;;;;;5070531;28;20972;-77
2022/01/03 07:59:20;;;;;;;8.13;2.33;;;;;;;;;;5069171;28;20468;-77
2022/01/03 08:01:48;;;;;;;10.43;2.73;;;;;;;;;;5070963;28;20440;-77
2022/01/03 08:04:15;;;;;;;7.70;2.50;;;;;;;;;;5068982;28;20468;-77
2022/01/03 08:06:43;;;;;;;9.77;2.57;;;;;;;;;;5068642;28;20438;-79
2022/01/03 08:09:10;;;;;;;10.50;2.37;;;;;;;;;;5068646;28;20456;-76
2022/01/03 08:11:37;;;;;;;11.83;2.50;;;;;;;;;;5069926;28;20820;-76
2022/01/03 08:14:04;;;;;;;8.80;2.63;;;;;;;;;;5069127;28;20896;-77
2022/01/03 08:16:31;;;;;;;10.77;2.80;;;;;;;;;;5070893;28;20451;-77
2022/01/03 08:19:00;;;;;;;10.40;3.10;;;;;;;;;;5069251;28;20483;-76
2022/01/03 08:21:27;;;;;;;5.77;2.23;;;;;;;;;;5068452;28;20495;-77
2022/01/03 08:23:54;;;;;;;6.50;2.67;;;;;;;;;;5067796;28;20436;-76
2022/01/03 08:26:21;;;;;;;10.13;2.93;;;;;;;;;;5068007;28;20449;-76
2022/01/03 08:28:48;;;;;;;9.80;3.33;;;;;;;;;;5067254;28;20457;-77
2022/01/03 08:31:16;;;;;;;9.83;2.90;;;;;;;;;;5071761;28;20536;-76
2022/01/03 08:33:43;;;;;;;8.10;2.53;;;;;;;;;;5070920;28;20471;-77
2022/01/03 08:36:12;;;;;;;12.70;4.87;;;;;;;;;;5070127;28;20456;-76
2022/01/03 08:38:39;;;;;;;5.80;2.40;;;;;;;;;;5065912;28;20989;-75
2022/01/03 08:41:06;;;;;;;7.10;2.87;;;;;;;;;;5069395;28;20436;-77
2022/01/03 08:43:34;;;;;;;14.13;2.67;;;;;;;;;;5072174;28;20463;-76
2022/01/03 08:46:01;;;;;;;15.00;2.53;;;;;;;;;;5068693;28;20456;-76
2022/01/03 08:48:28;;;;;;;5.70;2.20;;;;;;;;;;5067143;28;20492;-77
2022/01/03 08:50:55;;;;;;;6.97;2.20;;;;;;;;;;5070028;28;20543;-75
2022/01/03 08:53:26;;;;;;;5.87;3.03;;;;;;;;;;5069000;28;20460;-76
2022/01/03 08:55:54;;;;;;;7.27;2.00;;;;;;;;;;5072426;28;20543;-76
2022/01/03 08:58:21;;;;;;;15.23;2.93;;;;;;;;;;5069317;28;20472;-77
2022/01/03 09:00:48;;;;;;;11.30;2.90;;;;;;;;;;5068589;28;20444;-76
2022/01/03 09:03:15;;;;;;;5.43;2.50;;;;;;;;;;5066579;28;20531;-77
2022/01/03 09:05:43;;;;;;;12.70;2.70;;;;;;;;;;5067761;28;20452;-78
2022/01/03 09:08:10;;;;;;;10.47;2.77;;;;;;;;;;5067591;28;20795;-76
2022/01/03 09:10:40;;;;;;;10.03;3.23;;;;;;;;;;5049701;28;20452;-75
2022/01/03 09:13:07;;;;;;;6.73;2.70;;;;;;;;;;5042129;28;20455;-76
2022/01/03 09:15:34;;;;;;;7.80;2.20;;;;;;;;;;5068543;28;20495;-76
2022/01/03 09:18:01;;;;;;;9.03;2.60;;;;;;;;;;5074089;28;20460;-76
2022/01/03 09:20:29;;;;;;;10.10;2.93;;;;;;;;;;5073596;28;20463;-78
2022/01/03 09:23:06;;;;;;;5.77;2.37;;;;;;;;;;5054118;28;20832;-75
2022/01/03 09:30:57;;;;;;;11.43;2.70;;;;;;;;;;5070634;28;20533;-75
2022/01/03 09:33:25;;;;;;;12.60;2.50;;;;;;;;;;5072298;28;20435;-76
2022/01/03 09:35:52;;;;;;;8.97;2.93;;;;;;;;;;5066548;28;20486;-76
2022/01/03 09:38:20;;;;;;;9.80;2.50;;;;;;;;;;5071301;28;20511;-73
2022/01/03 09:40:47;;;;;;;6.60;2.53;;;;;;;;;;5069440;28;20456;-77
2022/01/03 09:43:18;;;;;;;9.33;3.80;;;;;;;;;;5069341;28;20496;-76
2022/01/03 09:45:47;;;;;;;9.90;3.10;;;;;;;;;;5071042;28;20436;-77
2022/01/03 09:48:15;;;;;;;8.83;2.90;;;;;;;;;;5074902;28;20835;-77
2022/01/03 09:50:44;;;;;;;9.60;3.30;;;;;;;;;;5071404;28;20483;-77
2022/01/03 09:53:11;;;;;;;8.40;2.77;;;;;;;;;;5071808;28;20452;-76
2022/01/03 09:55:39;;;;;;;9.37;2.80;;;;;;;;;;5070363;28;20495;-75
2022/01/03 09:58:06;;;;;;;8.20;2.40;;;;;;;;;;5070964;28;20459;-74
2022/01/03 10:00:34;;;;;;;7.20;2.73;;;;;;;;;;5067544;28;20446;-75
2022/01/03 10:03:02;;;;;;;16.37;3.37;;;;;;;;;;5068411;28;20444;-75
2022/01/03 10:05:29;;;;;;;15.90;3.07;;;;;;;;;;5072173;28;20531;-77
2022/01/03 10:07:56;;;;;;;10.50;3.30;;;;;;;;;;5070685;28;20483;-74
2022/01/03 10:10:24;;;;;;;10.57;2.80;;;;;;;;;;5071771;28;20539;-76
2022/01/03 10:12:51;;;;;;;7.83;2.23;;;;;;;;;;5072195;28;20446;-75
2022/01/03 10:15:19;;;;;;;5.70;2.13;;;;;;;;;;5073426;28;20476;-77
2022/01/03 10:17:47;;;;;;;6.23;2.33;;;;;;;;;;5068703;28;20456;-76
2022/01/03 10:20:17;;;;;;;11.90;3.30;;;;;;;;;;5069007;28;20460;-74
2022/01/03 10:22:44;;;;;;;11.37;3.70;;;;;;;;;;5051246;28;20793;-77
2022/01/03 10:25:12;;;;;;;16.00;2.80;;;;;;;;;;5071902;28;20428;-76
2022/01/03 10:27:48;;;;;;;6.50;1.90;;;;;;;;;;5053616;28;20448;-75
2022/01/03 10:30:16;;;;;;;11.50;2.97;;;;;;;;;;5054379;28;20443;-75
2022/01/03 10:32:45;;;;;;;16.07;3.60;;;;;;;;;;5071230;28;20507;-75
2022/01/03 10:35:16;;;;;;;8.57;3.03;;;;;;;;;;5069865;28;20465;-76
2022/01/03 10:37:44;;;;;;;12.43;3.40;;;;;;;;;;5067241;28;20479;-75
2022/01/03 10:40:19;;;;;;;8.23;2.77;;;;;;;;;;5068555;28;20464;-75
2022/01/03 10:42:46;;;;;;;9.50;2.80;;;;;;;;;;5071136;28;20450;-76
2022/01/03 10:45:14;;;;;;;13.10;2.60;;;;;;;;;;5071656;28;21023;-76
2022/01/03 10:47:42;;;;;;;9.60;3.60;;;;;;;;;;5069696;28;20957;-77
2022/01/03 10:50:20;;;;;;;12.33;2.77;;;;;;;;;;5069818;28;21000;-75
2022/01/03 10:52:47;;;;;;;12.63;2.90;;;;;;;;;;5068875;28;20444;-77
2022/01/03 10:55:16;;;;;;;11.13;3.03;;;;;;;;;;5070658;28;20881;-77
2022/01/03 10:57:45;;;;;;;8.10;2.67;;;;;;;;;;5052778;28;20456;-76
2022/01/03 11:00:16;;;;;;;12.00;2.83;;;;;;;;;;5054139;28;20451;-78
2022/01/03 11:03:06;;;;;;;9.50;2.57;;;;;;;;;;5064163;28;20483;-77
2022/01/03 11:05:45;;;;;;;7.77;2.33;;;;;;;;;;5072247;28;20941;-76
2022/01/03 11:10:55;;;;;;;6.23;1.77;;;;;;;;;;5071868;28;20447;-80
2022/01/03 11:13:23;;;;;;;12.20;2.70;;;;;;;;;;5068321;28;20520;-80
2022/01/03 11:15:52;;;;;;;4.60;1.67;;;;;;;;;;5069074;28;20838;-81
2022/01/03 11:18:20;;;;;;;5.63;1.60;;;;;;;;;;5067996;28;20873;-78
2022/01/03 11:20:49;;;;;;;6.77;1.93;;;;;;;;;;5069646;28;20448;-78
2022/01/03 11:23:24;;;;;;;7.40;1.90;;;;;;;;;;5053632;28;20921;-76
2022/01/03 11:25:53;;;;;;;8.00;2.10;;;;;;;;;;5070378;28;20466;-77
2022/01/03 11:28:21;;;;;;;9.30;2.20;;;;;;;;;;5066656;28;20472;-78
2022/01/03 11:30:49;;;;;;;6.17;1.90;;;;;;;;;;5071602;28;20956;-78
2022/01/03 11:33:16;;;;;;;6.80;1.73;;;;;;;;;;5073208;28;20436;-77
2022/01/03 11:35:58;;;;;;;8.60;2.03;;;;;;;;;;5067698;28;20502;-76
2022/01/03 11:38:30;;;;;;;7.53;2.10;;;;;;;;;;5023090;28;20466;-79
2022/01/03 11:40:59;;;;;;;4.20;2.10;;;;;;;;;;5020463;28;20836;-76
2022/01/03 11:43:28;;;;;;;5.40;1.73;;;;;;;;;;5028018;28;20454;-73
2022/01/03 11:45:55;;;;;;;3.73;1.63;;;;;;;;;;5026018;28;20856;-76
2022/01/03 11:48:23;;;;;;;5.00;1.70;;;;;;;;;;5024334;28;20477;-76
2022/01/03 11:50:51;;;;;;;4.33;1.77;;;;;;;;;;5026932;28;20545;-77
2022/01/03 11:53:20;;;;;;;6.47;1.90;;;;;;;;;;5009588;28;20434;-79
2022/01/03 11:55:52;;;;;;;5.57;2.40;;;;;;;;;;5026258;28;20502;-76
2022/01/03 11:58:40;;;;;;;4.77;1.80;;;;;;;;;;5027786;28;20591;-78
2022/01/03 12:03:51;;;;;;;6.43;2.13;;;;;;;;;;5030624;28;20433;-74
2022/01/03 12:06:28;;;;;;;8.73;1.90;;;;;;;;;;5028350;28;20541;-77
2022/01/03 12:08:56;;;;;;;7.17;1.60;;;;;;;;;;5035437;28;20535;-77
2022/01/03 12:11:28;;;;;;;4.00;1.70;;;;;;;;;;5060094;28;20455;-78
2022/01/03 12:13:56;;;;;;;9.23;1.90;;;;;;;;;;5067619;28;20465;-77
2022/01/03 12:16:38;;;;;;;3.87;1.70;;;;;;;;;;5064804;28;20838;-80
2022/01/03 12:19:07;;;;;;;6.97;1.67;;;;;;;;;;5053263;28;20480;-78
2022/01/03 12:21:49;;;;;;;3.40;1.60;;;;;;;;;;5068344;28;20453;-78
2022/01/03 12:24:31;;;;;;;4.90;2.00;;;;;;;;;;5054572;28;20432;-78
2022/01/03 12:27:13;;;;;;;4.77;1.90;;;;;;;;;;5054416;28;20441;-79
2022/01/03 12:29:55;;;;;;;4.63;1.30;;;;;;;;;;5050252;28;20484;-77
2022/01/03 12:32:24;;;;;;;10.97;2.77;;;;;;;;;;5037001;28;20946;-79
2022/01/03 12:35:06;;;;;;;9.37;2.93;;;;;;;;;;5058458;28;20459;-78
2022/01/03 12:37:34;;;;;;;9.70;2.30;;;;;;;;;;5053237;28;20440;-77
2022/01/03 12:40:17;;;;;;;12.43;2.50;;;;;;;;;;5065870;28;20819;-77
2022/01/03 12:42:59;;;;;;;6.90;2.50;;;;;;;;;;5053010;28;21018;-78
2022/01/03 12:45:43;;;;;;;6.23;2.73;;;;;;;;;;5053015;28;20439;-78
2022/01/03 12:48:19;;;;;;;5.20;2.20;;;;;;;;;;5048454;28;20978;-76
2022/01/03 12:50:47;;;;;;;9.20;2.90;;;;;;;;;;5053675;28;20440;-77
2022/01/03 12:53:34;;;;;;;8.83;2.73;;;;;;;;;;5053819;28;20456;-77
2022/01/03 12:56:04;;;;;;;9.63;2.67;;;;;;;;;;5055966;28;20476;-78
2022/01/03 12:58:40;;;;;;;9.90;2.03;;;;;;;;;;5055537;28;20460;-80
2022/01/03 13:01:10;;;;;;;6.37;1.90;;;;;;;;;;5055361;28;20929;-78
2022/01/03 13:03:44;;;;;;;3.60;1.70;;;;;;;;;;5072860;28;20440;-77
2022/01/03 13:06:12;;;;;;;2.13;1.50;;;;;;;;;;5053472;28;20460;-78
2022/01/03 13:08:59;;;;;;;1.70;1.40;;;;;;;;;;5074463;28;20487;-78
2022/01/03 13:11:27;;;;;;;5.23;1.83;;;;;;;;;;5028031;28;20445;-76
2022/01/03 13:13:56;;;;;;;3.67;2.07;;;;;;;;;;5027591;28;21029;-79
2022/01/03 13:16:24;;;;;;;3.83;1.60;;;;;;;;;;5029034;28;20478;-79
2022/01/03 13:18:53;;;;;;;4.57;1.77;;;;;;;;;;5005388;28;21073;-77
2022/01/03 13:21:21;;;;;;;4.70;1.90;;;;;;;;;;5002270;28;21019;-77
2022/01/03 13:23:55;;;;;;;5.17;2.30;;;;;;;;;;5009974;28;20462;-77
2022/01/03 13:26:23;;;;;;;4.67;2.73;;;;;;;;;;5023138;28;21176;-77
2022/01/03 13:28:51;;;;;;;6.10;2.10;;;;;;;;;;5031910;28;20479;-78
2022/01/03 13:31:19;;;;;;;4.60;2.20;;;;;;;;;;5052037;28;20456;-78
2022/01/03 13:33:46;;;;;;;5.73;2.33;;;;;;;;;;5068233;28;20459;-78
2022/01/03 13:36:18;;;;;;;5.30;1.90;;;;;;;;;;5066982;28;20830;-77
2022/01/03 13:38:45;;;;;;;4.50;1.87;;;;;;;;;;5056691;28;20465;-77
2022/01/03 13:41:13;;;;;;;4.90;2.10;;;;;;;;;;5053559;28;20965;-77
2022/01/03 13:43:47;;;;;;;2.67;1.73;;;;;;;;;;5052696;28;20436;-76
2022/01/03 13:51:46;;;;;;;4.03;1.70;;;;;;;;;;5047450;28;20420;-78
2022/01/03 13:54:28;;;;;;;9.37;2.37;;;;;;;;;;5068876;28;20789;-79
2022/01/03 13:56:56;;;;;;;5.93;2.50;;;;;;;;;;5056681;28;20482;-76
2022/01/03 13:59:24;;;;;;;5.13;2.03;;;;;;;;;;5051196;28;21101;-77
2022/01/03 14:01:52;;;;;;;3.73;1.83;;;;;;;;;;5049324;28;20857;-76
2022/01/03 14:04:19;;;;;;;7.40;2.47;;;;;;;;;;5068324;28;20464;-76
2022/01/03 14:06:48;;;;;;;6.60;1.80;;;;;;;;;;5072494;28;20447;-77
2022/01/03 14:09:16;;;;;;;8.40;2.63;;;;;;;;;;5051000;28;20478;-76
2022/01/03 14:11:44;;;;;;;13.07;3.30;;;;;;;;;;5054934;28;20441;-77
2022/01/03 14:14:12;;;;;;;4.97;1.90;;;;;;;;;;5070635;28;20957;-77
2022/01/03 14:16:54;;;;;;;5.60;2.03;;;;;;;;;;5055141;28;20486;-77
2022/01/03 14:19:22;;;;;;;6.83;2.70;;;;;;;;;;5058965;28;20486;-76
2022/01/03 14:21:51;;;;;;;3.63;2.07;;;;;;;;;;5073504;28;20921;-76
2022/01/03 14:24:20;;;;;;;3.50;1.90;;;;;;;;;;5068754;28;20459;-76
2022/01/03 14:26:56;;;;;;;6.13;2.17;;;;;;;;;;5051323;28;20524;-76
2022/01/03 14:29:23;;;;;;;10.30;1.97;;;;;;;;;;5072229;28;20525;-77
2022/01/03 14:31:53;;;;;;;4.63;1.93;;;;;;;;;;5053037;28;20534;-77
2022/01/03 14:34:22;;;;;;;10.10;1.90;;;;;;;;;;5069211;28;20887;-75
2022/01/03 14:36:51;;;;;;;10.17;2.20;;;;;;;;;;5069745;28;20476;-75
2022/01/03 14:39:18;;;;;;;5.23;2.00;;;;;;;;;;5055603;28;20480;-75
2022/01/03 14:41:55;;;;;;;5.40;2.00;;;;;;;;;;5074390;28;20439;-77
2022/01/03 14:44:24;;;;;;;6.07;1.80;;;;;;;;;;5073127;28;20440;-76
2022/01/03 14:47:00;;;;;;;8.13;2.30;;;;;;;;;;5068126;28;20513;-77
2022/01/03 14:49:27;;;;;;;5.40;1.67;;;;;;;;;;5068257;28;20478;-77
2022/01/03 14:51:56;;;;;;;5.27;2.00;;;;;;;;;;5071253;28;20454;-76
2022/01/03 14:54:24;;;;;;;3.40;1.70;;;;;;;;;;5071889;28;20527;-76
2022/01/03 14:56:52;;;;;;;4.63;1.70;;;;;;;;;;5051317;28;20487;-76
2022/01/03 14:59:20;;;;;;;7.10;2.50;;;;;;;;;;5070623;28;20579;-76
2022/01/03 15:01:49;;;;;;;4.97;1.80;;;;;;;;;;5070657;28;20463;-76
2022/01/03 15:04:17;;;;;;;7.90;2.17;;;;;;;;;;5051029;28;20441;-76
2022/01/03 15:06:44;;;;;;;7.97;2.10;;;;;;;;;;5064630;28;20953;-76
2022/01/03 15:09:13;;;;;;;4.13;1.80;;;;;;;;;;5052116;28;20475;-80
2022/01/03 15:11:40;;;;;;;2.90;1.70;;;;;;;;;;5048806;28;20468;-78
2022/01/03 15:14:07;;;;;;;4.00;2.20;;;;;;;;;;5062949;28;20460;-77